Flight Track Log - Related Links

Times and Time Zones

All times are in EDT time to prevent confusion due to time zone crossing. See the N24BE flight status page for this flight to view local times or setup timezone preferences in your user account.

Time Position Orientation Groundspeed Altitude Reporting Facility
EDT Latitude Longitude Course Direction KTS MPH feet Rate Location/Type
Tue 07:22:13 PM 30.2956 -87.6794 North 102 117 400  Level Jacksonville Center
Tue 07:23:01 PM 30.3144 -87.6781 North 90 104 1,100 826 Climbing Jacksonville Center
Tue 07:24:02 PM 30.3461 -87.6700 12° North 107 123 1,900 720 Climbing Jacksonville Center
Tue 07:25:31 PM 30.3944 -87.6561 14° North 112 129 2,900 640 Climbing Houston Center
Tue 07:26:32 PM 30.4264 -87.6703 339° North 118 136 3,500 683 Climbing Houston Center
Tue 07:27:34 PM 30.4556 -87.6883 355° North 118 136 4,300 677 Climbing Houston Center
Tue 07:28:36 PM 30.4847 -87.7069 331° Northwest 120 138 4,900 683 Climbing Houston Center
Tue 07:29:37 PM 30.5139 -87.7267 330° Northwest 120 138 5,700 634 Climbing Houston Center
Tue 07:30:39 PM 30.5500 -87.7439 338° Northwest 118 136 6,200 242 Climbing Houston Center
Tue 07:31:41 PM 30.5881 -87.7625 337° Northwest 139 160 6,200  Level Houston Center
Tue 07:32:42 PM 30.6283 -87.7861 333° Northwest 155 178 6,200  Level Houston Center
Tue 07:33:44 PM 30.6661 -87.8153 326° Northwest 161 185 6,200  Level Houston Center
Tue 07:34:45 PM 30.7025 -87.8456 324° Northwest 162 186 6,200  Level Houston Center
Tue 07:35:47 PM 30.7403 -87.8756 326° Northwest 163 188 6,200  Level Houston Center
Tue 07:36:49 PM 30.7761 -87.9078 322° Northwest 163 188 6,200  Level Houston Center
Tue 07:37:50 PM 30.8172 -87.9469 321° Northwest 161 185 6,200  Level Houston Center
Tue 07:38:52 PM 30.8453 -87.9858 310° West 158 182 6,200  Level Houston Center
Tue 07:39:53 PM 30.8722 -88.0281 307° West 160 184 6,200  Level Houston Center
Tue 07:40:55 PM 30.9025 -88.0692 311° West 164 189 6,200  Level Houston Center
Tue 07:41:57 PM 30.9372 -88.1069 317° Northwest 168 193 6,200 -49 Level Houston Center
Tue 07:42:58 PM 30.9694 -88.1475 313° West 170 196 6,100 -98 Descending Houston Center
Tue 07:44:00 PM 31.0000 -88.1881 311° West 169 194 6,000  Descending Houston Center
Tue 07:45:01 PM 31.0306 -88.2261 313° West 164 189 6,100 49 Climbing Houston Center
Tue 07:46:03 PM 31.0678 -88.2722 313° West 170 196 6,100  Level Houston Center
Tue 07:47:04 PM 31.0975 -88.3114 312° West 166 191 6,100 -49 Level Houston Center
Tue 07:48:06 PM 31.1281 -88.3519 311° West 166 191 6,000  Descending Houston Center
Tue 07:49:08 PM 31.1644 -88.4008 311° West 167 192 6,100 49 Climbing Houston Center
Tue 07:50:09 PM 31.1919 -88.4439 307° West 166 191 6,100  Level Houston Center
Tue 07:51:11 PM 31.2186 -88.4892 305° West 167 192 6,100  Level Houston Center
Tue 07:52:13 PM 31.2442 -88.5342 304° West 167 192 6,100 -49 Level Houston Center
Tue 07:53:14 PM 31.2697 -88.5789 304° West 166 191 6,000  Descending Houston Center
Tue 07:54:16 PM 31.2933 -88.6264 300° West 169 194 6,100 48 Climbing Houston Center
Tue 07:55:18 PM 31.3158 -88.6744 299° West 170 196 6,100  Level Houston Center
Tue 07:56:19 PM 31.3411 -88.7333 297° West 169 194 6,100 -49 Level Houston Center
Tue 07:57:21 PM 31.3639 -88.7822 299° West 171 197 6,000  Descending Houston Center
Tue 07:58:23 PM 31.3850 -88.8311 297° West 170 196 6,100  Climbing Houston Center
Tue 07:59:24 PM 31.4050 -88.8819 295° West 171 197 6,000  Descending Houston Center
Tue 08:00:26 PM 31.4203 -88.9328 289° West 168 193 6,100  Climbing Houston Center
Tue 08:01:28 PM 31.4328 -88.9850 286° West 166 191 6,000  Descending Houston Center
Tue 08:02:29 PM 31.4458 -89.0386 286° West 170 196 6,100 49 Climbing Houston Center
Tue 08:03:31 PM 31.4622 -89.1014 287° West 169 194 6,100  Level Houston Center
Tue 08:04:33 PM 31.4739 -89.1553 284° West 171 197 6,100  Level Houston Center
Tue 08:05:34 PM 31.4867 -89.2100 285° West 173 199 6,100 -98 Level Houston Center
Tue 08:06:36 PM 31.4967 -89.2644 282° West 172 198 5,900 -48 Descending Houston Center
Tue 08:07:38 PM 31.5144 -89.3169 292° West 173 199 6,000 -195 Climbing Houston Center
Tue 08:08:39 PM 31.5403 -89.3642 303° West 171 197 5,500 -439 Descending Houston Center
Tue 08:09:41 PM 31.5719 -89.4094 309° West 178 205 5,100 -435 Descending Houston Center
Tue 08:10:43 PM 31.6178 -89.4575 318° Northwest 183 211 4,600 -488 Descending Houston Center
Tue 08:11:44 PM 31.6669 -89.4789 340° North 187 215 4,100 -153 Descending Houston Center
Tue 08:13:59 PM 31.7672 -89.5267 338° Northwest 175 201 4,100  Level Memphis Center
Tue 08:14:59 PM 31.8050 -89.5556 327° Northwest 164 189 4,100 -50 Level Memphis Center
Tue 08:15:59 PM 31.8428 -89.5847 327° Northwest 164 189 4,000 -50 Descending Memphis Center
Tue 08:16:59 PM 31.8783 -89.6136 325° Northwest 164 189 4,000 -50 Level Memphis Center
Tue 08:17:59 PM 31.9142 -89.6428 325° Northwest 164 189 3,900 -300 Descending Memphis Center
Tue 08:18:59 PM 31.9561 -89.6742 328° Northwest 164 189 3,400 -450 Descending Memphis Center
Tue 08:19:59 PM 31.9939 -89.7033 327° Northwest 164 189 3,000 -200 Descending Memphis Center
Tue 08:20:59 PM 32.0314 -89.7350 324° Northwest 169 194 3,000  Level Memphis Center
Tue 08:21:59 PM 32.0650 -89.7617 326° Northwest 169 194 3,000 50 Level Memphis Center
Tue 08:22:59 PM 32.0986 -89.7933 321° Northwest 158 182 3,100  Climbing Memphis Center
Tue 08:23:59 PM 32.1322 -89.8250 321° Northwest 158 182 3,000  Descending Memphis Center
Tue 08:24:59 PM 32.1636 -89.8517 324° Northwest 158 182 3,100  Climbing Memphis Center
Tue 08:25:59 PM 32.1972 -89.8836 321° Northwest 158 182 3,000 -50 Descending Memphis Center
Tue 08:26:59 PM 32.2286 -89.9128 322° Northwest 158 182 3,000 -150 Level Memphis Center
Tue 08:27:59 PM 32.2661 -89.9444 324° Northwest 158 182 2,700 -300 Descending Memphis Center
Tue 08:28:59 PM 32.2997 -89.9764 321° Northwest 158 182 2,400 -200 Descending Memphis Center
Tue 08:29:59 PM 32.3394 -90.0181 318° Northwest 158 182 2,300 -100 Descending Memphis Center

Login

Don't have an account? Register now (free) for customized features, flight alerts, and more!